Rock Island Junction, Arkansas
Current Conditions -  °F | °C
As of 9:00 AM on Monday 22 Dec 2014 (Local Time) from KLLQ Reporting Station
Haze Haze  
Wind Chill: 51°   Ceiling: 200
Heat Index: 51°   Visibility: 1.2mi
Dew Point: 50°   Wind: 10mph
Humidity: 96%   Direction: 160°SSE
Pressure: 29.78"   Gusts: NA
Location:  33.37°N, 92.1129°W
Report Text: KLLQ 221500Z AUTO 16009KT 1 1/4SM BR OVC002 11/10 A2978 RMK AO2 T01060100
Loading
Personal Weather Stations






























Interactive Weather Map New forecast layout! Learn more

10-Day Weather Forecast

Advertisements
Track Severe Weather on mobile